createdAt,value
2023-01-26T00:00:49.496Z,25.59
2023-01-26T00:01:49.462Z,27.03
2023-01-26T00:02:49.498Z,27.80
2023-01-26T00:03:49.436Z,27.63
2023-01-26T00:55:49.265Z,25.00
2023-01-26T00:56:50.195Z,25.00
2023-01-26T00:57:50.157Z,25.00
2023-01-26T00:58:50.111Z,25.00
2023-01-26T00:59:50.080Z,25.00
2023-01-26T01:00:50.103Z,25.00
2023-01-26T01:01:50.091Z,0.00
2023-01-26T01:02:49.990Z,0.00
2023-01-26T01:03:49.934Z,0.00
2023-01-26T01:04:49.893Z,0.00
2023-01-26T01:05:49.847Z,0.00
2023-01-26T01:06:49.820Z,9.98
2023-01-26T01:07:49.771Z,24.75
2023-01-26T01:08:49.738Z,25.00
2023-01-26T01:09:49.698Z,25.00
2023-01-26T01:10:49.657Z,25.00
2023-01-26T01:11:49.634Z,25.00
2023-01-26T01:12:49.584Z,25.00
2023-01-26T01:13:49.547Z,25.00
2023-01-26T01:14:49.509Z,25.00
2023-01-26T01:15:49.502Z,25.00
2023-01-26T01:16:49.429Z,25.00
2023-01-26T01:17:49.396Z,25.00
2023-01-26T01:18:49.346Z,25.24
2023-01-26T01:19:49.308Z,25.00
2023-01-26T01:20:49.263Z,25.69
2023-01-26T01:21:49.222Z,25.42
2023-01-26T01:22:49.183Z,27.12
2023-01-26T01:23:49.228Z,26.11
2023-01-26T01:24:49.123Z,25.29
2023-01-26T01:25:49.087Z,25.66
2023-01-26T01:26:49.048Z,25.91
2023-01-26T01:27:49.024Z,25.00
2023-01-26T01:28:48.972Z,26.14
2023-01-26T01:29:48.940Z,25.76
2023-01-26T01:30:48.935Z,26.74
2023-01-26T01:31:48.921Z,26.19
2023-01-26T01:32:48.838Z,25.97
2023-01-26T01:33:48.798Z,26.63
2023-01-26T01:34:48.763Z,26.08
2023-01-26T01:35:48.711Z,25.23
2023-01-26T01:36:48.667Z,27.03
2023-01-26T01:37:48.632Z,26.77
2023-01-26T01:38:48.599Z,26.00
2023-01-26T01:39:48.555Z,25.64
2023-01-26T01:40:48.503Z,26.63
2023-01-26T01:41:48.476Z,25.04
2023-01-26T01:42:48.506Z,25.65
2023-01-26T01:43:48.403Z,26.83
2023-01-26T01:44:48.368Z,25.51
2023-01-26T01:45:48.326Z,25.18
2023-01-26T01:46:48.317Z,27.35
2023-01-26T01:47:48.247Z,25.00
2023-01-26T01:48:48.207Z,26.68
2023-01-26T01:49:48.188Z,25.00
2023-01-26T01:50:48.144Z,27.02
2023-01-26T01:51:48.101Z,26.83
2023-01-26T01:52:48.072Z,25.89
2023-01-26T01:53:48.040Z,27.32
2023-01-26T01:54:48.001Z,25.66
2023-01-26T01:55:47.960Z,26.80
2023-01-26T01:56:47.933Z,25.30
2023-01-26T01:57:47.892Z,26.03
2023-01-26T01:58:47.866Z,26.21
2023-01-26T01:59:47.860Z,27.22
2023-01-26T02:00:47.839Z,25.19
2023-01-26T02:01:47.806Z,26.07
2023-01-26T02:02:47.726Z,25.00
2023-01-26T02:03:47.692Z,27.23
2023-01-26T02:04:47.659Z,26.81
2023-01-26T02:05:47.617Z,27.59
2023-01-26T02:06:47.579Z,27.14
2023-01-26T02:07:47.547Z,26.64
2023-01-26T02:08:47.495Z,25.40
2023-01-26T02:09:47.480Z,27.25
2023-01-26T02:10:47.409Z,27.42
2023-01-26T02:11:47.374Z,27.96
2023-01-26T02:12:47.338Z,26.81
2023-01-26T02:13:47.299Z,27.48
2023-01-26T02:14:47.257Z,26.43
2023-01-26T02:15:47.253Z,26.84
2023-01-26T02:16:47.187Z,25.00
2023-01-26T02:17:47.166Z,27.02
2023-01-26T02:18:47.134Z,26.31
2023-01-26T02:19:47.091Z,25.17
2023-01-26T02:20:47.038Z,26.48
2023-01-26T02:21:47.005Z,28.25
2023-01-26T02:22:46.967Z,26.88
2023-01-26T02:23:46.951Z,26.59
2023-01-26T02:24:46.883Z,25.65
2023-01-26T02:25:46.843Z,26.87
2023-01-26T02:26:46.800Z,26.36
2023-01-26T02:27:46.755Z,27.54
2023-01-26T02:28:46.711Z,25.45
2023-01-26T02:29:46.669Z,27.18
2023-01-26T02:30:46.871Z,27.33
2023-01-26T02:31:46.689Z,26.85
2023-01-26T02:32:46.577Z,26.31
2023-01-26T02:33:46.516Z,25.43
2023-01-26T02:34:46.523Z,26.48
2023-01-26T02:35:46.439Z,28.07
2023-01-26T02:36:46.398Z,29.11
2023-01-26T02:37:46.365Z,27.36
2023-01-26T02:38:46.327Z,27.60
2023-01-26T02:39:46.299Z,27.11
2023-01-26T02:40:46.266Z,28.67
2023-01-26T02:41:46.248Z,26.85
2023-01-26T02:42:46.211Z,25.48
2023-01-26T02:43:46.181Z,26.84
2023-01-26T02:44:46.149Z,25.40
2023-01-26T02:45:46.121Z,26.09
2023-01-26T02:46:46.109Z,27.02
2023-01-26T02:47:46.098Z,25.79
2023-01-26T02:48:46.006Z,26.27
2023-01-26T02:49:45.993Z,27.21
2023-01-26T02:50:45.950Z,27.47
2023-01-26T02:51:45.900Z,26.74
2023-01-26T02:52:45.872Z,26.07
2023-01-26T02:53:45.843Z,26.27
2023-01-26T02:54:45.817Z,26.76
2023-01-26T02:55:45.781Z,25.84
2023-01-26T02:56:45.758Z,26.49
2023-01-26T02:57:45.729Z,27.34
2023-01-26T02:58:46.350Z,26.48
2023-01-26T02:59:45.662Z,28.02
2023-01-26T03:00:45.651Z,28.01
2023-01-26T03:01:45.568Z,25.80
2023-01-26T03:02:45.523Z,25.93
2023-01-26T03:03:45.543Z,25.79
2023-01-26T03:04:45.425Z,25.00
2023-01-26T03:05:45.393Z,27.97
2023-01-26T03:06:45.353Z,27.19
2023-01-26T03:07:45.310Z,27.43
2023-01-26T03:08:45.265Z,26.23
2023-01-26T03:09:45.223Z,26.75
2023-01-26T03:10:45.184Z,26.95
2023-01-26T03:11:45.152Z,26.56
2023-01-26T03:12:45.166Z,27.42
2023-01-26T03:13:45.060Z,28.55
2023-01-26T03:14:45.014Z,27.37
2023-01-26T03:15:44.965Z,28.25
2023-01-26T03:16:44.934Z,26.44
2023-01-26T03:17:44.896Z,27.65
2023-01-26T03:18:44.831Z,28.02
2023-01-26T03:19:44.805Z,26.82
2023-01-26T03:20:44.739Z,26.43
2023-01-26T03:21:44.687Z,27.42
2023-01-26T03:22:44.651Z,27.85
2023-01-26T03:23:44.613Z,26.10
2023-01-26T03:24:44.577Z,27.35
2023-01-26T03:25:44.529Z,27.88
2023-01-26T03:26:44.502Z,29.60
2023-01-26T03:27:44.446Z,27.18
2023-01-26T03:28:44.412Z,25.48
2023-01-26T03:29:44.367Z,26.31
2023-01-26T03:30:44.394Z,27.57
2023-01-26T03:31:44.279Z,25.99
2023-01-26T03:32:44.233Z,26.67
2023-01-26T03:33:44.197Z,27.92
2023-01-26T03:34:44.163Z,27.12
2023-01-26T03:35:44.147Z,25.28
2023-01-26T03:36:44.076Z,26.64
2023-01-26T03:37:44.107Z,28.18
2023-01-26T03:38:44.002Z,27.17
2023-01-26T03:39:43.966Z,25.40
2023-01-26T03:40:43.939Z,26.24
2023-01-26T03:41:43.911Z,28.34
2023-01-26T03:42:43.871Z,27.21
2023-01-26T03:43:43.852Z,25.96
2023-01-26T03:44:43.804Z,25.75
2023-01-26T03:45:43.764Z,26.38
2023-01-26T03:46:43.787Z,26.41
2023-01-26T03:47:43.700Z,27.22
2023-01-26T03:48:43.657Z,27.74
2023-01-26T03:49:43.645Z,27.53
2023-01-26T03:50:43.572Z,26.22
2023-01-26T03:51:43.563Z,27.89
2023-01-26T03:52:43.504Z,26.99
2023-01-26T03:53:43.466Z,26.70
2023-01-26T03:54:43.422Z,26.58
2023-01-26T03:55:43.390Z,26.17
2023-01-26T03:56:43.350Z,26.90
2023-01-26T03:57:43.319Z,25.00
2023-01-26T03:58:43.269Z,26.28
2023-01-26T03:59:43.275Z,28.82
2023-01-26T04:00:43.242Z,27.53
2023-01-26T04:01:43.235Z,27.99
2023-01-26T04:02:43.119Z,27.27
2023-01-26T04:03:43.090Z,27.05
2023-01-26T04:04:43.099Z,26.62
2023-01-26T04:05:43.015Z,27.56
2023-01-26T04:06:43.310Z,27.42
2023-01-26T04:07:42.963Z,27.96
2023-01-26T04:08:42.897Z,25.63
2023-01-26T04:09:42.859Z,26.17
2023-01-26T04:10:42.823Z,27.43
2023-01-26T04:11:42.791Z,25.85
2023-01-26T04:12:42.752Z,27.34
2023-01-26T04:13:42.738Z,26.69
2023-01-26T04:14:49.966Z,26.57
2023-01-26T04:15:42.649Z,26.89
2023-01-26T04:16:42.661Z,27.61
2023-01-26T04:17:42.587Z,28.12
2023-01-26T04:18:42.583Z,28.18
2023-01-26T04:19:42.520Z,29.73
2023-01-26T04:20:42.482Z,28.33
2023-01-26T04:21:42.479Z,27.14
2023-01-26T04:22:42.409Z,28.53
2023-01-26T04:23:42.401Z,27.83
2023-01-26T04:24:42.329Z,28.68
2023-01-26T04:25:42.288Z,26.09
2023-01-26T04:26:42.253Z,28.71
2023-01-26T04:27:42.215Z,26.29
2023-01-26T04:28:42.173Z,26.63
2023-01-26T04:29:42.148Z,27.79
2023-01-26T04:30:42.169Z,26.47
2023-01-26T04:31:42.190Z,28.81
2023-01-26T04:32:42.007Z,26.72
2023-01-26T04:33:41.962Z,26.17
2023-01-26T04:34:41.924Z,25.46
2023-01-26T04:35:41.881Z,27.53
2023-01-26T04:36:41.834Z,26.48
2023-01-26T04:37:41.790Z,27.42
2023-01-26T04:38:41.758Z,27.94
2023-01-26T04:39:41.742Z,27.71
2023-01-26T04:40:41.678Z,26.24
2023-01-26T04:41:42.490Z,27.21
2023-01-26T04:42:41.597Z,30.37
2023-01-26T04:43:41.566Z,28.10
2023-01-26T04:44:41.520Z,26.24
2023-01-26T04:45:41.494Z,25.50
2023-01-26T04:46:41.437Z,26.96
2023-01-26T04:47:41.403Z,27.54
2023-01-26T04:48:41.359Z,25.45
2023-01-26T04:49:41.369Z,26.36
2023-01-26T04:50:41.304Z,29.09
2023-01-26T04:51:41.268Z,28.03
2023-01-26T04:52:41.237Z,26.54
2023-01-26T04:53:41.194Z,26.53
2023-01-26T04:54:41.225Z,26.64
2023-01-26T04:55:41.153Z,28.24
2023-01-26T04:56:41.089Z,27.00
2023-01-26T04:57:41.055Z,26.30
2023-01-26T04:58:41.023Z,27.51
2023-01-26T04:59:40.985Z,28.16
2023-01-26T05:00:40.956Z,25.87
2023-01-26T05:01:40.930Z,26.42
2023-01-26T05:02:40.903Z,28.25
2023-01-26T05:03:40.871Z,26.39
2023-01-26T05:04:40.867Z,27.35
2023-01-26T05:05:40.800Z,25.74
2023-01-26T05:06:40.772Z,25.15
2023-01-26T05:07:40.731Z,29.18
2023-01-26T05:08:40.694Z,26.85
2023-01-26T05:09:40.663Z,27.85
2023-01-26T05:10:40.619Z,26.50
2023-01-26T05:11:40.607Z,28.36
2023-01-26T05:12:40.551Z,28.75
2023-01-26T05:13:40.511Z,27.31
2023-01-26T05:14:40.476Z,26.45
2023-01-26T05:15:40.445Z,26.38
2023-01-26T05:16:40.430Z,27.25
2023-01-26T05:17:40.367Z,27.10
2023-01-26T05:18:40.338Z,28.29
2023-01-26T05:19:40.312Z,28.59
2023-01-26T05:20:40.274Z,28.42
2023-01-26T05:21:40.247Z,26.59
2023-01-26T05:22:40.196Z,26.91
2023-01-26T05:23:40.161Z,26.52
2023-01-26T05:24:40.121Z,28.08
2023-01-26T05:25:40.082Z,27.15
2023-01-26T05:26:40.052Z,27.46
2023-01-26T05:27:40.027Z,27.13
2023-01-26T05:28:39.955Z,26.78
2023-01-26T05:29:39.920Z,25.94
2023-01-26T05:30:39.906Z,27.72
2023-01-26T05:31:39.928Z,26.55
2023-01-26T05:32:39.802Z,25.81
2023-01-26T05:33:39.768Z,27.34
2023-01-26T05:34:39.758Z,26.03
2023-01-26T05:35:39.691Z,26.85
2023-01-26T05:36:39.649Z,27.52
2023-01-26T05:37:39.600Z,26.40
2023-01-26T05:38:39.565Z,25.68
2023-01-26T05:39:39.525Z,27.15
2023-01-26T05:40:39.479Z,27.65
2023-01-26T05:41:39.444Z,27.45
2023-01-26T05:42:39.395Z,26.84
2023-01-26T05:43:39.388Z,25.99
2023-01-26T05:44:39.311Z,25.81
2023-01-26T05:45:39.288Z,26.54
2023-01-26T05:46:39.220Z,26.93
2023-01-26T05:47:39.181Z,25.76
2023-01-26T05:48:39.162Z,27.70
2023-01-26T05:49:39.134Z,27.55
2023-01-26T05:50:39.071Z,26.35
2023-01-26T05:51:39.019Z,27.61
2023-01-26T05:52:38.977Z,27.55
2023-01-26T05:53:38.941Z,28.57
2023-01-26T05:54:38.925Z,28.00
2023-01-26T05:55:38.877Z,29.52
2023-01-26T05:56:38.831Z,29.29
2023-01-26T05:57:38.792Z,28.19
2023-01-26T05:58:38.770Z,27.13
2023-01-26T05:59:38.762Z,28.06
2023-01-26T06:00:38.703Z,26.54
2023-01-26T06:01:38.662Z,25.93
2023-01-26T06:02:38.623Z,28.02
2023-01-26T06:03:38.669Z,28.49
2023-01-26T06:04:38.626Z,28.94
2023-01-26T06:05:45.489Z,28.16
2023-01-26T06:06:38.507Z,28.62
2023-01-26T06:07:38.474Z,28.79
2023-01-26T06:08:38.442Z,28.96
2023-01-26T06:09:38.444Z,28.96
2023-01-26T06:10:38.376Z,27.37
2023-01-26T06:11:38.350Z,27.87
2023-01-26T06:12:38.318Z,28.96
2023-01-26T06:13:38.279Z,28.62
2023-01-26T06:14:38.501Z,27.00
2023-01-26T06:15:38.226Z,26.68
2023-01-26T06:16:38.259Z,28.13
2023-01-26T06:17:38.152Z,26.73
2023-01-26T06:18:38.114Z,26.63
2023-01-26T06:19:38.151Z,27.30
2023-01-26T06:20:38.469Z,27.44
2023-01-26T06:21:38.013Z,25.46
2023-01-26T06:22:37.973Z,26.76
2023-01-26T06:23:37.935Z,26.38
2023-01-26T06:24:37.894Z,26.61
2023-01-26T06:25:37.948Z,27.14
2023-01-26T06:26:37.822Z,26.43
2023-01-26T06:27:37.812Z,27.38
2023-01-26T06:28:37.771Z,27.34
2023-01-26T06:29:37.734Z,27.43
2023-01-26T06:30:37.869Z,27.71
2023-01-26T06:31:38.124Z,27.51
2023-01-26T06:32:37.628Z,30.10
2023-01-26T06:33:37.587Z,28.75
2023-01-26T06:34:37.556Z,29.12
2023-01-26T06:35:37.954Z,30.08
2023-01-26T06:36:37.481Z,31.53
2023-01-26T06:37:37.450Z,30.95
2023-01-26T06:38:37.412Z,29.94
2023-01-26T06:39:37.453Z,31.87
2023-01-26T06:40:37.325Z,32.61
2023-01-26T06:41:37.295Z,32.05
2023-01-26T06:42:37.257Z,32.96
2023-01-26T06:43:37.264Z,34.40
2023-01-26T06:44:37.457Z,36.81
2023-01-26T06:45:37.454Z,37.61
2023-01-26T06:46:37.085Z,41.02
2023-01-26T06:47:37.146Z,41.48
2023-01-26T06:48:37.012Z,45.22
2023-01-26T06:49:36.979Z,46.81
2023-01-26T06:50:37.020Z,48.88
2023-01-26T06:51:36.889Z,55.42
2023-01-26T06:52:36.881Z,55.51
2023-01-26T06:53:36.959Z,53.22
2023-01-26T06:54:36.771Z,59.94
2023-01-26T06:55:36.724Z,66.16
2023-01-26T06:56:36.685Z,70.67
2023-01-26T06:57:36.650Z,77.97
2023-01-26T06:58:37.087Z,75.01
2023-01-26T06:59:37.718Z,76.74
2023-01-26T07:00:36.526Z,79.51
2023-01-26T07:01:36.571Z,81.10
2023-01-26T07:02:36.574Z,80.66
2023-01-26T07:03:36.592Z,83.01
2023-01-26T07:04:36.390Z,82.38
2023-01-26T07:05:37.360Z,81.96
2023-01-26T07:06:36.301Z,81.74
2023-01-26T07:07:36.252Z,83.12
2023-01-26T07:08:36.514Z,83.95
2023-01-26T07:09:36.170Z,83.80
2023-01-26T07:10:36.467Z,84.18
2023-01-26T07:11:36.100Z,84.96
2023-01-26T07:12:36.061Z,83.74
2023-01-26T07:13:36.027Z,82.75
2023-01-26T07:14:36.461Z,84.15
2023-01-26T07:15:35.935Z,83.17
2023-01-26T07:16:35.949Z,83.68
2023-01-26T07:17:39.079Z,82.53
2023-01-26T07:18:43.255Z,82.73
2023-01-26T07:19:35.791Z,83.02
2023-01-26T07:20:35.752Z,83.88
2023-01-26T07:21:35.750Z,84.44
2023-01-26T07:22:35.692Z,84.19
2023-01-26T07:23:35.985Z,84.66
2023-01-26T07:24:35.610Z,86.05
2023-01-26T07:25:35.564Z,84.91
2023-01-26T07:26:35.539Z,83.89
2023-01-26T07:27:35.515Z,83.56
2023-01-26T07:28:35.470Z,84.37
2023-01-26T07:29:35.481Z,82.75
2023-01-26T07:30:35.380Z,83.65
2023-01-26T07:31:35.357Z,84.11
2023-01-26T07:32:35.312Z,84.81
2023-01-26T07:33:35.275Z,82.19
2023-01-26T07:34:35.260Z,82.53
2023-01-26T07:35:35.204Z,81.87
2023-01-26T07:36:35.161Z,81.09
2023-01-26T07:37:35.140Z,82.28
2023-01-26T07:38:35.084Z,81.73
2023-01-26T07:39:35.491Z,82.64
2023-01-26T07:40:35.477Z,82.93
2023-01-26T07:41:34.993Z,81.58
2023-01-26T07:42:34.976Z,81.35
2023-01-26T07:43:34.994Z,81.06
2023-01-26T07:44:34.892Z,80.95
2023-01-26T07:45:34.980Z,81.16
2023-01-26T07:46:34.893Z,81.44
2023-01-26T07:47:34.810Z,80.57
2023-01-26T07:48:34.744Z,80.15
2023-01-26T07:49:34.700Z,80.80
2023-01-26T07:50:35.001Z,80.37
2023-01-26T07:51:35.028Z,78.48
2023-01-26T07:52:34.567Z,79.44
2023-01-26T07:53:34.553Z,79.15
2023-01-26T07:54:34.499Z,77.68
2023-01-26T07:55:34.495Z,78.35
2023-01-26T07:56:34.427Z,78.42
2023-01-26T07:57:34.394Z,79.70
2023-01-26T07:58:34.366Z,77.51
2023-01-26T07:59:34.331Z,78.14
2023-01-26T08:00:34.521Z,77.43
2023-01-26T08:01:34.336Z,78.01
2023-01-26T08:02:34.251Z,76.79
2023-01-26T08:03:34.216Z,76.03
2023-01-26T08:04:34.484Z,77.96
2023-01-26T08:05:34.112Z,76.57
2023-01-26T08:06:34.128Z,77.42
2023-01-26T08:07:34.062Z,76.53
2023-01-26T08:08:34.015Z,77.05
2023-01-26T08:09:34.494Z,76.29
2023-01-26T08:10:33.986Z,78.22
2023-01-26T08:11:33.920Z,76.01
2023-01-26T08:12:37.061Z,74.26
2023-01-26T08:13:36.050Z,74.65
2023-01-26T08:14:46.156Z,74.75
2023-01-26T08:15:33.776Z,74.89
2023-01-26T08:16:33.842Z,76.07
2023-01-26T08:17:33.687Z,77.06
2023-01-26T08:18:34.052Z,76.99
2023-01-26T08:19:33.620Z,78.15
2023-01-26T08:20:33.585Z,77.77
2023-01-26T08:21:33.555Z,74.85
2023-01-26T08:22:33.557Z,74.49
2023-01-26T08:23:33.615Z,76.52
2023-01-26T08:24:33.492Z,73.95
2023-01-26T08:25:33.409Z,74.39
2023-01-26T08:26:33.360Z,73.90
2023-01-26T08:27:33.343Z,73.73
2023-01-26T08:28:34.020Z,75.02
2023-01-26T08:29:33.247Z,74.11
2023-01-26T08:30:33.231Z,74.47
2023-01-26T08:31:33.239Z,72.82
2023-01-26T08:32:33.162Z,72.96
2023-01-26T08:33:33.493Z,72.03
2023-01-26T08:34:33.054Z,71.00
2023-01-26T08:35:33.025Z,71.23
2023-01-26T08:36:33.019Z,72.51
2023-01-26T08:37:32.959Z,70.23
2023-01-26T08:38:33.082Z,73.34
2023-01-26T08:39:32.881Z,74.63
2023-01-26T08:40:33.128Z,80.47
2023-01-26T08:41:32.930Z,80.25
2023-01-26T08:42:32.751Z,80.35
2023-01-26T08:43:33.001Z,84.51
2023-01-26T08:44:32.672Z,89.69
2023-01-26T08:45:32.726Z,93.25
2023-01-26T08:46:32.593Z,98.77
2023-01-26T08:47:32.529Z,97.21
2023-01-26T08:48:32.529Z,99.56
2023-01-26T08:49:32.479Z,99.40
2023-01-26T08:50:32.407Z,102.11
2023-01-26T08:51:32.510Z,108.10
2023-01-26T08:52:32.513Z,109.56
2023-01-26T08:53:32.322Z,111.48
2023-01-26T08:54:32.303Z,118.10
2023-01-26T08:55:32.283Z,116.62
2023-01-26T08:56:32.194Z,119.74
2023-01-26T08:57:32.504Z,125.28
2023-01-26T08:58:32.114Z,127.67
2023-01-26T08:59:39.002Z,129.27
2023-01-26T09:00:32.502Z,129.84
2023-01-26T09:01:32.068Z,130.67
2023-01-26T09:02:32.159Z,132.52
2023-01-26T09:03:31.880Z,135.32
2023-01-26T09:04:31.843Z,142.22
2023-01-26T09:05:31.803Z,143.80
2023-01-26T09:06:31.782Z,148.95
2023-01-26T09:07:32.044Z,151.89
2023-01-26T09:08:31.733Z,150.38
2023-01-26T09:09:31.600Z,154.39
2023-01-26T09:10:31.584Z,156.65
2023-01-26T09:11:31.520Z,155.85
2023-01-26T09:12:40.746Z,159.96
2023-01-26T09:13:31.413Z,160.72
2023-01-26T09:14:31.370Z,161.32
2023-01-26T09:15:31.315Z,162.50
2023-01-26T09:16:31.538Z,167.88
2023-01-26T09:17:31.232Z,175.16
2023-01-26T09:18:31.238Z,174.30
2023-01-26T09:19:31.367Z,168.61
2023-01-26T09:20:31.079Z,179.86
2023-01-26T09:21:31.510Z,178.99
2023-01-26T09:22:31.017Z,180.93
2023-01-26T09:23:30.922Z,181.18
2023-01-26T09:24:30.879Z,182.16
2023-01-26T09:25:30.841Z,184.93
2023-01-26T09:26:30.810Z,161.74
2023-01-26T09:27:31.050Z,153.39
2023-01-26T09:28:30.697Z,138.10
2023-01-26T09:29:30.655Z,136.51
2023-01-26T09:30:33.723Z,126.54
2023-01-26T09:31:30.774Z,126.61
2023-01-26T09:32:31.020Z,120.31
2023-01-26T09:33:30.525Z,105.29
2023-01-26T09:34:30.649Z,95.04
2023-01-26T09:35:30.575Z,87.98
2023-01-26T09:36:30.547Z,85.22
2023-01-26T09:37:30.440Z,75.40
2023-01-26T09:38:30.423Z,73.45
2023-01-26T09:39:30.384Z,94.63
2023-01-26T09:40:30.524Z,68.92
2023-01-26T09:41:30.533Z,49.01
2023-01-26T09:42:30.362Z,38.77
2023-01-26T09:43:30.342Z,54.06
2023-01-26T09:44:30.343Z,45.07
2023-01-26T09:45:30.324Z,32.66
2023-01-26T09:46:30.571Z,42.62
2023-01-26T09:47:30.305Z,47.84
2023-01-26T09:48:30.297Z,40.88
2023-01-26T09:49:30.271Z,43.87
2023-01-26T09:50:30.265Z,46.02
2023-01-26T09:51:30.559Z,50.48
2023-01-26T09:52:30.213Z,52.10
2023-01-26T09:53:30.174Z,53.95
2023-01-26T09:54:30.149Z,58.65
2023-01-26T09:55:30.124Z,61.63
2023-01-26T09:56:31.120Z,63.50
2023-01-26T09:57:30.285Z,72.35
2023-01-26T09:58:30.251Z,72.44
2023-01-26T09:59:29.978Z,74.06
2023-01-26T10:00:29.946Z,79.17
2023-01-26T10:01:30.022Z,80.49
2023-01-26T10:02:29.893Z,83.72
2023-01-26T10:03:29.819Z,87.19
2023-01-26T10:04:29.814Z,93.28
2023-01-26T10:05:29.723Z,95.25
2023-01-26T10:06:30.030Z,98.33
2023-01-26T10:07:29.631Z,101.64
2023-01-26T10:08:29.606Z,107.50
2023-01-26T10:09:29.530Z,107.85
2023-01-26T10:10:30.147Z,111.10
2023-01-26T10:11:29.537Z,111.66
2023-01-26T10:12:29.382Z,116.58
2023-01-26T10:13:29.338Z,119.39
2023-01-26T10:14:29.294Z,122.24
2023-01-26T10:15:30.268Z,125.24
2023-01-26T10:16:29.568Z,127.52
2023-01-26T10:17:29.130Z,127.46
2023-01-26T10:18:29.062Z,131.50
2023-01-26T10:19:29.010Z,129.52
2023-01-26T10:20:28.989Z,133.91
2023-01-26T10:21:28.939Z,135.94
2023-01-26T10:22:28.878Z,94.30
2023-01-26T10:23:28.870Z,114.82
2023-01-26T10:24:28.785Z,134.20
2023-01-26T10:25:29.040Z,131.91
2023-01-26T10:26:28.698Z,124.12
2023-01-26T10:27:28.654Z,118.90
2023-01-26T10:28:28.620Z,117.89
2023-01-26T10:29:28.572Z,117.23
2023-01-26T10:30:28.608Z,117.29
2023-01-26T10:31:28.617Z,117.85
2023-01-26T10:32:28.451Z,116.10
2023-01-26T10:33:28.417Z,117.34
2023-01-26T10:34:28.358Z,117.19
2023-01-26T10:35:28.573Z,116.94
2023-01-26T10:36:28.262Z,124.80
2023-01-26T10:37:28.336Z,143.80
2023-01-26T10:38:28.572Z,131.08
2023-01-26T10:39:28.132Z,123.23
2023-01-26T10:40:28.124Z,124.98
2023-01-26T10:41:28.645Z,126.06
2023-01-26T10:42:28.356Z,129.98
2023-01-26T10:43:28.059Z,131.61
2023-01-26T10:44:28.554Z,134.94
2023-01-26T10:45:27.883Z,134.90
2023-01-26T10:46:31.147Z,133.79
2023-01-26T10:47:28.096Z,134.16
2023-01-26T10:48:28.057Z,135.30
2023-01-26T10:49:28.061Z,136.53
2023-01-26T10:50:27.710Z,139.22
2023-01-26T10:51:27.683Z,145.32
2023-01-26T10:52:27.646Z,146.65
2023-01-26T10:53:27.573Z,150.56
2023-01-26T10:54:27.574Z,154.35
2023-01-26T10:55:27.438Z,152.18
2023-01-26T10:56:27.374Z,157.48
2023-01-26T10:57:27.589Z,159.11
2023-01-26T10:58:27.588Z,161.75
2023-01-26T10:59:27.283Z,165.10
2023-01-26T11:00:27.176Z,168.05
2023-01-26T11:01:28.163Z,165.77
2023-01-26T11:02:27.140Z,172.65
2023-01-26T11:03:27.076Z,169.30
2023-01-26T11:04:26.959Z,174.76
2023-01-26T11:05:26.905Z,171.17
2023-01-26T11:06:26.867Z,170.43
2023-01-26T11:07:26.857Z,174.22
2023-01-26T11:08:27.110Z,176.41
2023-01-26T11:09:26.710Z,177.15
2023-01-26T11:10:26.687Z,179.54
2023-01-26T11:11:26.612Z,181.29
2023-01-26T11:12:26.582Z,186.33
2023-01-26T11:13:26.517Z,201.59
2023-01-26T11:14:26.595Z,208.81
2023-01-26T11:15:26.444Z,207.95
2023-01-26T11:16:26.449Z,211.63
2023-01-26T11:17:26.346Z,215.42
2023-01-26T11:18:26.629Z,218.49
2023-01-26T11:19:26.239Z,228.13
2023-01-26T11:20:26.181Z,224.59
2023-01-26T11:21:26.096Z,227.44
2023-01-26T11:22:26.031Z,230.90
2023-01-26T11:23:26.058Z,229.98
2023-01-26T11:24:26.185Z,235.52
2023-01-26T11:25:25.933Z,232.30
2023-01-26T11:26:25.849Z,233.30
2023-01-26T11:27:25.865Z,237.16
2023-01-26T11:28:25.771Z,240.67
2023-01-26T11:29:26.102Z,243.78
2023-01-26T11:30:25.716Z,241.77
2023-01-26T11:31:25.824Z,248.62
2023-01-26T11:32:25.615Z,246.92
2023-01-26T11:33:26.057Z,247.72
2023-01-26T11:34:25.612Z,249.45
2023-01-26T11:35:25.538Z,244.49
2023-01-26T11:36:25.472Z,246.43
2023-01-26T11:37:25.394Z,244.35
2023-01-26T11:38:25.667Z,247.81
2023-01-26T11:39:25.582Z,249.08
2023-01-26T11:40:25.231Z,243.50
2023-01-26T11:41:25.398Z,245.97
2023-01-26T11:42:25.131Z,247.21
2023-01-26T11:43:25.074Z,249.70
2023-01-26T11:44:25.091Z,247.94
2023-01-26T11:45:25.065Z,246.31
2023-01-26T11:46:24.910Z,245.35
2023-01-26T11:47:24.844Z,245.94
2023-01-26T11:48:25.084Z,247.90
2023-01-26T11:49:25.137Z,243.95
2023-01-26T11:50:24.708Z,248.14
2023-01-26T11:51:24.648Z,249.53
2023-01-26T11:52:24.568Z,246.31
2023-01-26T11:53:24.509Z,248.00
2023-01-26T11:54:24.596Z,243.65
2023-01-26T11:55:24.596Z,244.83
2023-01-26T11:56:24.355Z,248.08
2023-01-26T11:57:24.619Z,246.43
2023-01-26T11:58:24.239Z,248.70
2023-01-26T11:59:24.177Z,247.37
2023-01-26T12:00:30.647Z,246.78
2023-01-26T12:01:24.089Z,247.19
2023-01-26T12:02:26.435Z,248.24
2023-01-26T12:03:24.014Z,247.36
2023-01-26T12:04:23.943Z,247.77
2023-01-26T12:05:24.122Z,248.10
2023-01-26T12:06:24.118Z,250.07
2023-01-26T12:07:24.119Z,258.25
2023-01-26T12:08:23.706Z,249.81
2023-01-26T12:09:23.653Z,248.41
2023-01-26T12:10:23.585Z,246.10
2023-01-26T12:11:24.142Z,245.85
2023-01-26T12:12:23.628Z,244.05
2023-01-26T12:13:23.422Z,247.86
2023-01-26T12:14:23.581Z,250.00
2023-01-26T12:15:23.311Z,248.29
2023-01-26T12:16:23.582Z,243.42
2023-01-26T12:17:23.185Z,241.61
2023-01-26T12:18:23.116Z,242.46
2023-01-26T12:19:23.087Z,239.29
2023-01-26T12:20:23.016Z,237.02
2023-01-26T12:21:23.091Z,229.25
2023-01-26T12:22:23.045Z,227.62
2023-01-26T12:23:22.851Z,221.88
2023-01-26T12:24:48.464Z,223.25
2023-01-26T12:25:22.759Z,223.50
2023-01-26T12:26:22.713Z,223.70
2023-01-26T12:27:22.645Z,223.80
2023-01-26T12:28:22.607Z,218.52
2023-01-26T12:29:22.593Z,220.20
2023-01-26T12:30:22.588Z,215.82
2023-01-26T12:31:22.597Z,215.33
2023-01-26T12:32:22.414Z,216.28
2023-01-26T12:33:22.369Z,213.17
2023-01-26T12:34:22.591Z,214.17
2023-01-26T12:35:22.301Z,209.81
2023-01-26T12:36:22.240Z,206.03
2023-01-26T12:37:22.199Z,205.51
2023-01-26T12:38:22.190Z,208.67
2023-01-26T12:39:22.619Z,204.34
2023-01-26T12:40:22.123Z,203.94
2023-01-26T12:41:22.039Z,203.88
2023-01-26T12:42:21.988Z,202.16
2023-01-26T12:43:21.935Z,202.24
2023-01-26T12:44:21.889Z,199.26
2023-01-26T12:45:21.882Z,201.69
2023-01-26T12:46:21.878Z,200.06
2023-01-26T12:47:21.750Z,199.48
2023-01-26T12:48:21.708Z,198.61
2023-01-26T12:49:21.677Z,193.93
2023-01-26T12:50:21.625Z,196.18
2023-01-26T12:51:21.587Z,191.86
2023-01-26T12:52:21.538Z,193.72
2023-01-26T12:53:21.497Z,189.20
2023-01-26T12:54:21.483Z,189.34
2023-01-26T12:55:21.595Z,187.69
2023-01-26T12:56:22.100Z,187.62
2023-01-26T12:57:21.340Z,186.15
2023-01-26T12:58:21.291Z,184.61
2023-01-26T12:59:46.692Z,184.19
2023-01-26T13:00:21.230Z,184.54
2023-01-26T13:01:21.194Z,185.13
2023-01-26T13:02:21.232Z,185.06
2023-01-26T13:03:21.073Z,183.54
2023-01-26T13:04:21.039Z,183.56
2023-01-26T13:05:20.996Z,180.40
2023-01-26T13:06:20.946Z,181.29
2023-01-26T13:07:20.911Z,179.31
2023-01-26T13:08:20.875Z,177.99
2023-01-26T13:09:20.823Z,175.70
2023-01-26T13:10:21.129Z,173.38
2023-01-26T13:11:22.105Z,174.99
2023-01-26T13:12:20.654Z,177.01
2023-01-26T13:13:20.623Z,172.84
2023-01-26T13:14:20.575Z,172.58
2023-01-26T13:15:20.550Z,172.35
2023-01-26T13:16:22.026Z,170.28
2023-01-26T13:17:20.606Z,170.93
2023-01-26T13:18:20.538Z,168.89
2023-01-26T13:19:20.496Z,166.87
2023-01-26T13:20:20.440Z,167.19
2023-01-26T13:21:20.617Z,165.54
2023-01-26T13:22:20.354Z,163.48
2023-01-26T13:23:20.329Z,164.27
2023-01-26T13:24:20.296Z,163.03
2023-01-26T13:25:20.245Z,163.07
2023-01-26T13:26:20.644Z,162.67
2023-01-26T13:27:20.182Z,161.23
2023-01-26T13:28:20.120Z,161.50
2023-01-26T13:29:20.079Z,160.70
2023-01-26T13:30:20.095Z,158.68
2023-01-26T13:31:20.184Z,159.68
2023-01-26T13:32:19.963Z,158.39
2023-01-26T13:33:19.927Z,158.37
2023-01-26T13:34:19.882Z,157.31
2023-01-26T13:35:19.841Z,156.30